createdAt,value
2022-11-18T00:02:23.938Z,8.10
2022-11-18T00:04:51.294Z,7.30
2022-11-18T00:07:19.028Z,8.17
2022-11-18T00:09:46.396Z,8.30
2022-11-18T00:12:32.424Z,8.37
2022-11-18T00:14:59.860Z,7.20
2022-11-18T00:17:27.166Z,6.47
2022-11-18T00:19:54.513Z,9.70
2022-11-18T00:22:26.889Z,7.70
2022-11-18T00:24:56.968Z,7.13
2022-11-18T00:27:24.261Z,6.70
2022-11-18T00:29:51.608Z,7.03
2022-11-18T00:32:18.950Z,9.77
2022-11-18T00:34:46.220Z,7.63
2022-11-18T00:37:13.565Z,8.27
2022-11-18T00:39:40.915Z,7.60
2022-11-18T00:42:26.785Z,8.90
2022-11-18T00:44:54.230Z,7.00
2022-11-18T00:47:21.527Z,7.93
2022-11-18T00:49:48.893Z,7.43
2022-11-18T00:52:16.191Z,6.97
2022-11-18T00:54:43.553Z,7.93
2022-11-18T00:57:11.020Z,7.43
2022-11-18T00:59:38.393Z,6.67
2022-11-18T01:02:05.689Z,6.90
2022-11-18T01:04:33.111Z,7.10
2022-11-18T01:07:00.510Z,8.20
2022-11-18T01:09:27.895Z,8.47
2022-11-18T01:12:13.736Z,7.50
2022-11-18T01:14:41.104Z,7.20
2022-11-18T01:17:08.504Z,8.90
2022-11-18T01:19:36.205Z,8.47
2022-11-18T01:22:03.616Z,8.80
2022-11-18T01:24:31.943Z,8.70
2022-11-18T01:26:59.431Z,8.83
2022-11-18T01:29:26.806Z,8.50
2022-11-18T01:32:22.669Z,7.60
2022-11-18T01:34:41.592Z,8.57
2022-11-18T01:37:08.871Z,8.70
2022-11-18T01:39:36.258Z,7.80
2022-11-18T01:42:03.652Z,7.50
2022-11-18T01:44:49.459Z,7.53
2022-11-18T01:47:17.254Z,8.10
2022-11-18T01:49:44.936Z,8.57
2022-11-18T01:52:12.808Z,7.33
2022-11-18T01:54:42.746Z,7.33
2022-11-18T01:57:12.968Z,7.83
2022-11-18T01:59:41.755Z,8.10
2022-11-18T02:02:12.136Z,9.20
2022-11-18T02:04:44.048Z,7.43
2022-11-18T02:07:11.961Z,6.37
2022-11-18T02:09:39.344Z,8.83
2022-11-18T02:12:07.288Z,7.43
2022-11-18T02:14:35.944Z,7.43
2022-11-18T02:17:09.067Z,8.77
2022-11-18T02:19:36.378Z,8.70
2022-11-18T02:22:18.104Z,12.53
2022-11-18T02:24:48.241Z,10.43
2022-11-18T02:27:27.873Z,11.40
2022-11-18T02:30:04.620Z,11.77
2022-11-18T02:32:55.388Z,13.20
2022-11-18T02:35:29.019Z,13.73
2022-11-18T02:37:56.408Z,14.47
2022-11-18T02:40:29.808Z,14.57
2022-11-18T02:43:08.946Z,13.73
2022-11-18T02:45:37.640Z,14.00
2022-11-18T02:48:08.485Z,14.37
2022-11-18T02:50:36.991Z,16.77
2022-11-18T02:53:06.152Z,14.63
2022-11-18T02:55:34.952Z,14.60
2022-11-18T02:58:04.491Z,14.90
2022-11-18T03:00:32.556Z,12.67
2022-11-18T03:03:00.672Z,14.67
2022-11-18T03:05:31.573Z,12.77
2022-11-18T03:08:04.673Z,17.17
2022-11-18T03:10:34.520Z,16.20
2022-11-18T03:13:05.061Z,16.53
2022-11-18T03:15:32.823Z,16.43
2022-11-18T03:18:19.325Z,13.37
2022-11-18T03:21:13.157Z,14.30
2022-11-18T03:23:57.834Z,17.73
2022-11-18T03:26:27.849Z,16.43
2022-11-18T03:29:07.587Z,16.57
2022-11-18T03:31:38.909Z,13.87
2022-11-18T03:34:09.512Z,16.47
2022-11-18T03:36:40.559Z,16.57
2022-11-18T03:39:09.849Z,15.83
2022-11-18T03:41:39.969Z,15.13
2022-11-18T03:44:11.192Z,17.73
2022-11-18T03:46:44.604Z,14.00
2022-11-18T03:49:16.000Z,15.90
2022-11-18T03:51:45.903Z,15.20
2022-11-18T03:54:28.336Z,15.10
2022-11-18T03:56:58.885Z,17.67
2022-11-18T03:59:38.890Z,16.83
2022-11-18T04:02:18.125Z,15.87
2022-11-18T04:04:47.778Z,14.37
2022-11-18T04:07:15.726Z,16.70
2022-11-18T04:09:46.235Z,17.13
2022-11-18T04:12:19.286Z,16.63
2022-11-18T04:14:50.044Z,19.23
2022-11-18T04:17:21.270Z,16.10
2022-11-18T04:19:49.124Z,15.03
2022-11-18T04:22:18.067Z,15.37
2022-11-18T04:24:45.969Z,15.77
2022-11-18T04:27:13.807Z,15.60
2022-11-18T04:29:41.592Z,16.37
2022-11-18T04:32:09.457Z,15.23
2022-11-18T04:34:37.246Z,15.60
2022-11-18T04:37:05.018Z,18.00
2022-11-18T04:39:33.008Z,16.40
2022-11-18T04:42:00.778Z,16.03
2022-11-18T04:44:28.698Z,15.13
2022-11-18T04:46:57.357Z,14.70
2022-11-18T05:00:11.056Z,16.97
2022-11-18T05:02:38.463Z,17.00
2022-11-18T05:05:06.156Z,14.97
2022-11-18T05:07:33.622Z,16.40
2022-11-18T05:10:01.242Z,16.07
2022-11-18T05:12:48.042Z,16.73
2022-11-18T05:15:18.851Z,15.37
2022-11-18T05:17:46.350Z,16.27
2022-11-18T05:20:14.223Z,17.13
2022-11-18T05:22:41.690Z,15.03
2022-11-18T05:25:09.494Z,15.80
2022-11-18T05:27:37.015Z,18.30
2022-11-18T05:30:04.861Z,17.93
2022-11-18T05:32:32.430Z,17.70
2022-11-18T05:34:59.829Z,20.37
2022-11-18T05:37:27.290Z,21.80
2022-11-18T05:39:54.739Z,19.80
2022-11-18T05:42:40.678Z,18.70
2022-11-18T05:45:08.259Z,19.07
2022-11-18T05:47:55.590Z,18.57
2022-11-18T05:50:23.070Z,21.10
2022-11-18T05:52:50.550Z,16.33
2022-11-18T05:55:18.805Z,20.60
2022-11-18T05:57:48.826Z,18.63
2022-11-18T06:00:16.581Z,19.57
2022-11-18T06:02:44.894Z,16.90
2022-11-18T06:05:12.873Z,20.20
2022-11-18T06:07:44.268Z,19.30
2022-11-18T06:10:13.794Z,17.40
2022-11-18T06:12:43.982Z,19.67
2022-11-18T06:15:11.439Z,21.23
2022-11-18T06:17:50.160Z,19.13
2022-11-18T06:20:21.180Z,19.53
2022-11-18T06:22:49.863Z,19.73
2022-11-18T06:25:17.387Z,19.20
2022-11-18T06:27:45.050Z,19.80
2022-11-18T06:30:12.851Z,19.17
2022-11-18T06:32:40.383Z,20.20
2022-11-18T06:35:08.234Z,16.97
2022-11-18T06:37:35.646Z,19.33
2022-11-18T06:40:03.072Z,17.87
2022-11-18T06:42:48.939Z,17.20
2022-11-18T06:45:16.494Z,16.67
2022-11-18T06:47:43.953Z,18.70
2022-11-18T06:50:11.418Z,18.63
2022-11-18T06:52:38.891Z,21.97
2022-11-18T06:55:08.344Z,22.97
2022-11-18T06:57:36.215Z,20.87
2022-11-18T07:00:04.299Z,18.67
2022-11-18T07:02:31.783Z,19.23
2022-11-18T07:04:59.191Z,20.50
2022-11-18T07:07:26.741Z,19.60
2022-11-18T07:09:54.367Z,20.23
2022-11-18T07:12:21.886Z,18.40
2022-11-18T07:14:49.303Z,15.60
2022-11-18T07:17:16.776Z,18.50
2022-11-18T07:19:44.182Z,17.63
2022-11-18T07:22:11.582Z,17.37
2022-11-18T07:24:39.081Z,18.80
2022-11-18T07:27:06.610Z,16.90
2022-11-18T07:29:34.117Z,16.57
2022-11-18T07:32:01.593Z,17.80
2022-11-18T07:34:29.071Z,19.67
2022-11-18T07:36:56.534Z,18.77
2022-11-18T07:39:24.015Z,18.27
2022-11-18T07:41:51.454Z,17.10
2022-11-18T07:44:18.980Z,17.37
2022-11-18T07:46:46.499Z,18.27
2022-11-18T07:49:13.965Z,17.53
2022-11-18T07:51:41.488Z,20.23
2022-11-18T07:54:10.002Z,15.97
2022-11-18T07:56:37.506Z,16.47
2022-11-18T07:59:05.013Z,15.73
2022-11-18T08:01:32.660Z,17.67
2022-11-18T08:04:05.735Z,17.43
2022-11-18T08:06:33.908Z,15.40
2022-11-18T08:09:01.572Z,14.47
2022-11-18T08:11:28.992Z,14.17
2022-11-18T08:13:56.423Z,14.20
2022-11-18T08:16:24.896Z,15.87
2022-11-18T08:18:52.755Z,18.23
2022-11-18T08:21:21.302Z,14.33
2022-11-18T08:23:56.787Z,13.93
2022-11-18T08:26:25.112Z,13.67
2022-11-18T08:28:53.024Z,14.87
2022-11-18T08:31:22.640Z,15.00
2022-11-18T08:33:50.142Z,12.70
2022-11-18T08:36:19.079Z,13.27
2022-11-18T08:38:46.570Z,13.67
2022-11-18T08:41:19.245Z,14.40
2022-11-18T08:43:46.712Z,14.00
2022-11-18T08:46:14.242Z,12.30
2022-11-18T08:48:41.675Z,13.33
2022-11-18T08:51:11.615Z,11.93
2022-11-18T08:53:39.096Z,13.20
2022-11-18T08:56:06.659Z,10.80
2022-11-18T08:58:34.167Z,12.67
2022-11-18T09:01:08.366Z,11.77
2022-11-18T09:03:35.977Z,11.13
2022-11-18T09:06:17.482Z,11.80
2022-11-18T09:08:45.061Z,12.37
2022-11-18T09:11:16.536Z,13.00
2022-11-18T09:14:14.283Z,10.87
2022-11-18T09:16:32.585Z,10.77
2022-11-18T09:19:18.230Z,10.60
2022-11-18T09:21:48.108Z,9.83
2022-11-18T09:24:15.874Z,10.63
2022-11-18T09:26:43.467Z,10.77
2022-11-18T09:29:11.834Z,10.23
2022-11-18T09:31:39.231Z,9.57
2022-11-18T09:34:06.802Z,10.73
2022-11-18T09:36:34.236Z,9.70
2022-11-18T09:39:01.702Z,10.27
2022-11-18T09:41:38.936Z,9.63
2022-11-18T09:44:35.158Z,10.57
2022-11-18T09:47:14.607Z,8.13
2022-11-18T09:49:43.252Z,8.27
2022-11-18T09:52:13.518Z,7.70
2022-11-18T09:54:41.057Z,7.30
2022-11-18T09:57:16.064Z,8.20
2022-11-18T09:59:43.894Z,6.10
2022-11-18T10:02:14.343Z,6.63
2022-11-18T10:04:41.812Z,7.20
2022-11-18T10:07:22.699Z,7.53
2022-11-18T10:09:52.787Z,7.07
2022-11-18T10:12:36.041Z,6.47
2022-11-18T10:15:03.711Z,6.00
2022-11-18T10:17:56.105Z,7.77
2022-11-18T10:20:29.491Z,5.70
2022-11-18T10:23:05.883Z,6.17
2022-11-18T10:25:33.504Z,6.60
2022-11-18T10:28:14.799Z,6.27
2022-11-18T10:30:42.312Z,4.10
2022-11-18T10:33:28.995Z,5.27
2022-11-18T10:36:15.234Z,4.80
2022-11-18T10:38:48.440Z,5.50
2022-11-18T10:41:18.293Z,5.50
2022-11-18T10:43:53.140Z,5.60
2022-11-18T10:46:20.623Z,5.27
2022-11-18T10:48:48.075Z,5.37
2022-11-18T10:51:23.255Z,6.53
2022-11-18T10:53:50.735Z,4.80
2022-11-18T10:56:18.280Z,6.50
2022-11-18T10:58:48.787Z,4.10
2022-11-18T11:01:24.316Z,3.00
2022-11-18T11:04:00.406Z,3.37
2022-11-18T11:06:28.434Z,3.90
2022-11-18T11:09:00.570Z,3.40
2022-11-18T11:11:30.199Z,4.73
2022-11-18T11:14:08.259Z,7.60
2022-11-18T11:16:39.820Z,6.57
2022-11-18T11:19:10.574Z,10.37
2022-11-18T11:21:38.038Z,9.30
2022-11-18T11:24:11.128Z,9.57
2022-11-18T11:29:40.766Z,7.33
2022-11-18T11:32:17.405Z,5.13
2022-11-18T11:35:03.632Z,1.77
2022-11-18T11:37:49.501Z,5.23
2022-11-18T11:40:29.684Z,5.43
2022-11-18T11:43:15.770Z,6.93
2022-11-18T11:45:48.330Z,7.20
2022-11-18T11:48:35.989Z,6.03
2022-11-18T11:51:09.705Z,4.97
2022-11-18T11:53:49.071Z,4.83
2022-11-18T11:56:22.920Z,5.47
2022-11-18T11:59:08.552Z,6.40
2022-11-18T12:01:35.914Z,2.17
2022-11-18T12:04:16.257Z,3.77
2022-11-18T12:06:46.957Z,2.13
2022-11-18T12:09:22.628Z,4.57
2022-11-18T12:11:59.154Z,4.63
2022-11-18T12:14:53.987Z,3.73
2022-11-18T12:17:28.838Z,1.87
2022-11-18T12:19:56.264Z,2.27
2022-11-18T12:22:23.690Z,1.67
2022-11-18T12:24:51.101Z,2.83
2022-11-18T12:27:24.734Z,1.60
2022-11-18T12:29:52.297Z,1.57
2022-11-18T12:32:31.909Z,1.30
2022-11-18T12:35:25.829Z,1.63
2022-11-18T12:37:53.282Z,1.40
2022-11-18T12:40:50.497Z,1.43
2022-11-18T12:43:46.947Z,2.47
2022-11-18T12:46:33.113Z,9.27
2022-11-18T12:49:20.530Z,8.23
2022-11-18T12:51:48.354Z,7.50
2022-11-18T12:54:25.224Z,7.10
2022-11-18T12:56:52.776Z,5.70
2022-11-18T12:59:31.160Z,4.23
2022-11-18T13:02:06.082Z,3.03
2022-11-18T13:04:33.620Z,5.10
2022-11-18T13:07:02.170Z,3.80
2022-11-18T13:09:31.519Z,4.60
2022-11-18T13:12:00.998Z,4.53
2022-11-18T13:14:58.941Z,4.67
2022-11-18T13:17:47.732Z,4.57
2022-11-18T13:20:38.519Z,4.50
2022-11-18T13:23:36.278Z,2.13
2022-11-18T13:26:05.522Z,2.83
2022-11-18T13:28:38.825Z,3.27
2022-11-18T13:31:10.684Z,2.77
2022-11-18T13:33:39.210Z,2.57
2022-11-18T13:36:36.047Z,2.40
2022-11-18T13:39:05.540Z,2.20
2022-11-18T13:41:33.955Z,1.50
2022-11-18T13:44:19.985Z,2.27
2022-11-18T13:46:50.612Z,2.00
2022-11-18T13:49:20.645Z,3.73
2022-11-18T13:51:48.309Z,2.17
2022-11-18T13:54:20.910Z,1.90
2022-11-18T13:56:48.461Z,2.00
2022-11-18T13:59:18.627Z,2.37
2022-11-18T14:01:46.984Z,2.37
2022-11-18T14:04:20.078Z,2.87
2022-11-18T14:06:47.550Z,1.67
2022-11-18T14:09:14.956Z,2.53
2022-11-18T14:11:43.726Z,3.07
2022-11-18T14:14:11.909Z,3.60
2022-11-18T14:16:41.050Z,5.13
2022-11-18T14:19:13.970Z,4.37
2022-11-18T14:21:41.542Z,3.00
2022-11-18T14:24:14.793Z,2.30
2022-11-18T14:26:42.360Z,2.67
2022-11-18T14:29:21.342Z,1.63
2022-11-18T14:32:24.592Z,2.00
2022-11-18T14:35:01.001Z,1.50
2022-11-18T14:37:28.877Z,1.73
2022-11-18T14:39:57.419Z,1.77
2022-11-18T14:42:25.580Z,1.27
2022-11-18T14:44:53.150Z,0.77
2022-11-18T14:47:28.088Z,2.33
2022-11-18T14:49:55.515Z,2.37
2022-11-18T14:52:22.958Z,3.33
2022-11-18T14:54:50.426Z,1.30
2022-11-18T14:57:19.138Z,0.83
2022-11-18T14:59:46.831Z,1.23
2022-11-18T15:02:15.836Z,1.60
2022-11-18T15:04:43.508Z,3.57
2022-11-18T15:07:18.505Z,2.47
2022-11-18T15:09:49.097Z,1.07
2022-11-18T15:12:16.467Z,1.00
2022-11-18T15:14:43.893Z,2.27
2022-11-18T15:17:12.957Z,3.30
2022-11-18T15:19:41.711Z,2.13
2022-11-18T15:22:09.759Z,2.10
2022-11-18T15:24:37.237Z,1.50
2022-11-18T15:27:05.697Z,1.77
2022-11-18T15:29:33.240Z,1.87
2022-11-18T15:32:00.658Z,2.93
2022-11-18T15:34:28.118Z,3.00
2022-11-18T15:36:55.509Z,1.93
2022-11-18T15:39:22.909Z,1.87
2022-11-18T15:41:50.355Z,2.33
2022-11-18T15:44:17.951Z,2.40
2022-11-18T15:46:48.039Z,0.93
2022-11-18T15:49:17.649Z,2.13
2022-11-18T15:51:45.172Z,1.07
2022-11-18T15:54:12.644Z,2.67
2022-11-18T15:56:41.614Z,1.57
2022-11-18T15:59:13.150Z,2.07
2022-11-18T16:01:45.546Z,3.77
2022-11-18T16:04:14.131Z,2.60
2022-11-18T16:06:43.635Z,2.47
2022-11-18T16:09:11.724Z,2.33
2022-11-18T16:11:57.695Z,3.50
2022-11-18T16:14:25.568Z,3.53
2022-11-18T16:16:54.320Z,3.47
2022-11-18T16:19:24.568Z,3.60
2022-11-18T16:21:56.862Z,8.70
2022-11-18T16:24:25.870Z,6.17
2022-11-18T16:26:53.244Z,5.77
2022-11-18T16:29:21.203Z,3.07
2022-11-18T16:31:53.102Z,5.67
2022-11-18T16:34:20.698Z,5.33
2022-11-18T16:36:49.402Z,6.43
2022-11-18T16:39:18.198Z,6.80
2022-11-18T16:41:46.405Z,5.90
2022-11-18T16:44:17.482Z,5.37
2022-11-18T16:46:49.485Z,5.73
2022-11-18T16:49:18.649Z,6.03
2022-11-18T16:51:47.119Z,5.87
2022-11-18T16:54:18.152Z,6.60
2022-11-18T16:56:46.038Z,5.70
2022-11-18T16:59:18.244Z,5.57
2022-11-18T17:01:46.412Z,5.63
2022-11-18T17:04:14.292Z,8.57
2022-11-18T17:06:41.949Z,7.57
2022-11-18T17:09:35.939Z,7.43
2022-11-18T17:12:03.761Z,7.00
2022-11-18T17:14:31.438Z,7.40
2022-11-18T17:16:58.903Z,7.20
2022-11-18T17:19:26.300Z,7.13
2022-11-18T17:21:54.086Z,7.57
2022-11-18T17:24:22.870Z,6.73
2022-11-18T17:26:50.948Z,6.83
2022-11-18T17:29:18.739Z,6.87
2022-11-18T17:31:46.471Z,6.43
2022-11-18T17:34:15.006Z,8.03
2022-11-18T17:36:42.899Z,7.33
2022-11-18T17:39:11.461Z,7.63
2022-11-18T17:41:57.343Z,7.83
2022-11-18T17:44:24.872Z,7.80
2022-11-18T17:46:52.335Z,6.97
2022-11-18T17:49:23.405Z,8.10
2022-11-18T17:51:53.964Z,6.97
2022-11-18T17:54:22.219Z,6.90
2022-11-18T17:56:52.349Z,7.97
2022-11-18T17:59:20.169Z,7.10
2022-11-18T18:01:47.713Z,7.17
2022-11-18T18:04:20.272Z,7.77
2022-11-18T18:06:49.184Z,7.57
2022-11-18T18:09:17.132Z,7.87
2022-11-18T18:11:44.552Z,7.97
2022-11-18T18:14:14.896Z,6.73
2022-11-18T18:16:51.565Z,7.30
2022-11-18T18:19:20.403Z,7.10
2022-11-18T18:21:48.326Z,7.37
2022-11-18T18:24:18.252Z,8.33
2022-11-18T18:26:46.057Z,7.37
2022-11-18T18:29:13.873Z,7.27
2022-11-18T18:31:41.343Z,7.30
2022-11-18T18:34:08.794Z,7.67
2022-11-18T18:36:36.422Z,6.53
2022-11-18T18:39:04.016Z,8.10
2022-11-18T18:41:32.607Z,7.27
2022-11-18T18:44:00.381Z,7.23
2022-11-18T18:46:36.527Z,7.60
2022-11-18T18:49:11.413Z,8.20
2022-11-18T18:51:39.903Z,7.10
2022-11-18T18:54:08.387Z,7.80
2022-11-18T18:56:35.868Z,7.67
2022-11-18T18:59:03.407Z,6.83
2022-11-18T19:01:31.043Z,7.30
2022-11-18T19:04:03.021Z,7.20
2022-11-18T19:09:18.213Z,7.30
2022-11-18T19:12:04.748Z,7.67
2022-11-18T19:14:33.514Z,7.77
2022-11-18T19:17:04.983Z,6.97
2022-11-18T19:19:55.376Z,7.27
2022-11-18T19:22:23.139Z,7.90
2022-11-18T19:24:51.229Z,7.57
2022-11-18T19:27:19.686Z,6.80
2022-11-18T19:29:47.111Z,7.57
2022-11-18T19:32:14.700Z,7.90
2022-11-18T19:34:42.239Z,6.80
2022-11-18T19:37:09.636Z,7.07
2022-11-18T19:39:38.588Z,7.70
2022-11-18T19:42:06.240Z,7.43
2022-11-18T19:44:33.933Z,7.90
2022-11-18T19:47:01.397Z,7.43
2022-11-18T19:49:28.817Z,6.90
2022-11-18T19:51:56.250Z,7.17
2022-11-18T19:54:23.738Z,7.10
2022-11-18T19:56:51.192Z,6.67
2022-11-18T19:59:18.797Z,6.47
2022-11-18T20:01:46.588Z,6.90
2022-11-18T20:04:14.075Z,7.00
2022-11-18T20:06:41.486Z,6.67
2022-11-18T20:09:09.891Z,6.77
2022-11-18T20:11:38.363Z,6.93
2022-11-18T20:14:06.142Z,7.60
2022-11-18T20:16:33.762Z,10.47
2022-11-18T20:19:07.860Z,8.73
2022-11-18T20:21:39.070Z,7.87
2022-11-18T20:24:07.594Z,8.50
2022-11-18T20:26:35.961Z,8.37
2022-11-18T20:29:03.377Z,7.70
2022-11-18T20:31:32.950Z,7.23
2022-11-18T20:34:00.332Z,6.80
2022-11-18T20:36:28.940Z,7.53
2022-11-18T20:38:57.956Z,7.50
2022-11-18T20:41:25.626Z,6.57
2022-11-18T20:43:53.222Z,7.50
2022-11-18T20:46:21.753Z,7.10
2022-11-18T20:48:51.350Z,7.00
2022-11-18T20:51:32.322Z,6.47
2022-11-18T20:54:00.536Z,6.70
2022-11-18T20:56:28.532Z,7.00
2022-11-18T20:58:58.653Z,6.87
2022-11-18T21:01:27.516Z,6.30
2022-11-18T21:03:56.280Z,8.00
2022-11-18T21:06:24.860Z,6.83
2022-11-18T21:08:55.877Z,6.73
2022-11-18T21:11:23.343Z,7.07
2022-11-18T21:14:09.574Z,7.40
2022-11-18T21:16:37.074Z,6.63
2022-11-18T21:19:04.817Z,6.90
2022-11-18T21:21:52.613Z,5.90
2022-11-18T21:24:21.918Z,7.10
2022-11-18T21:26:50.570Z,8.00
2022-11-18T21:29:18.825Z,7.67
2022-11-18T21:31:50.020Z,7.80
2022-11-18T21:34:18.024Z,7.30
2022-11-18T21:36:50.201Z,7.47
2022-11-18T21:39:19.482Z,6.87
2022-11-18T21:41:51.999Z,7.57
2022-11-18T21:44:22.530Z,6.90
2022-11-18T21:46:49.926Z,7.87
2022-11-18T21:49:17.585Z,7.47
2022-11-18T21:51:45.586Z,7.70
2022-11-18T21:54:15.921Z,7.63
2022-11-18T21:56:43.695Z,7.00
2022-11-18T21:59:11.046Z,8.07
2022-11-18T22:01:38.546Z,7.70
2022-11-18T22:04:06.041Z,8.33
2022-11-18T22:06:34.526Z,7.80
2022-11-18T22:09:02.443Z,6.70
2022-11-18T22:11:29.976Z,7.97
2022-11-18T22:13:58.027Z,7.13
2022-11-18T22:16:26.674Z,7.03
2022-11-18T22:19:01.423Z,6.87
2022-11-18T22:21:31.267Z,7.00
2022-11-18T22:23:59.927Z,7.23
2022-11-18T22:26:27.801Z,6.77
2022-11-18T22:28:56.952Z,6.47
2022-11-18T22:31:25.136Z,7.67
2022-11-18T22:33:53.246Z,6.03
2022-11-18T22:36:21.791Z,6.60
2022-11-18T22:38:49.501Z,6.23
2022-11-18T22:41:39.806Z,5.90
2022-11-18T22:44:08.432Z,6.47
2022-11-18T22:46:39.853Z,6.60
2022-11-18T22:49:07.696Z,6.73
2022-11-18T22:51:35.969Z,7.00
2022-11-18T22:56:50.958Z,6.30
2022-11-18T22:59:18.731Z,6.13
2022-11-18T23:01:46.443Z,6.17
2022-11-18T23:04:13.868Z,6.40
2022-11-18T23:06:41.304Z,6.60
2022-11-18T23:09:09.817Z,7.40
2022-11-18T23:11:55.809Z,7.43
2022-11-18T23:14:23.297Z,7.20
2022-11-18T23:16:50.742Z,7.53
2022-11-18T23:19:18.653Z,7.10
2022-11-18T23:21:46.911Z,7.17
2022-11-18T23:24:15.333Z,7.43
2022-11-18T23:26:43.171Z,7.33
2022-11-18T23:29:11.316Z,7.67
2022-11-18T23:31:41.095Z,7.27
2022-11-18T23:34:09.110Z,7.03
2022-11-18T23:36:36.517Z,7.20
2022-11-18T23:39:04.044Z,7.27
2022-11-18T23:41:31.525Z,7.27
2022-11-18T23:43:58.921Z,7.90
2022-11-18T23:46:27.694Z,8.03
2022-11-18T23:48:55.120Z,8.73
2022-11-18T23:51:23.882Z,7.80
2022-11-18T23:53:57.492Z,7.17
2022-11-18T23:56:26.401Z,7.70
2022-11-18T23:58:54.747Z,7.40
